Latest Weather Observations for Red Rocks Point

IDW60801

Issued at 6:03 am WST Saturday 17 November 2018 (issued every 10 minutes, with the page automatically refreshed every 10 minutes)

About weather observations | Map of weather stations | Latest weather observations for WA | Other Formats
Station Details ID: 011053 Name: RED ROCKS POINT Lat: -32.20 Lon: 127.53 Height: 3.1 m
Data from the previous 72 hours. | See also: Recent months at Red Rocks Point
Date/Time
WST
Temp
°C
App
Temp
°C
Dew
Point
°C
Rel
Hum
%
Delta-T
°C
Wind Press
QNH
hPa
Press
MSL
hPa
Rain since
9am
mm
Dir  Spd
km/h
Gust
km/h
Spd
kts
Gust
kts
17/06:00am 18.0 15.3 14.7 81 1.9 NE 22 30 12 16 1020.1 1020.1 0.0
17/05:30am 17.9 15.3 15.0 83 1.7 NE 22 32 12 17 1020.0 1020.0 0.0
17/05:00am 18.0 15.5 15.1 83 1.7 NE 22 30 12 16 1019.6 1019.6 0.0
17/04:30am 18.7 13.1 15.4 81 1.9 ENE 39 46 21 25 1019.2 1019.2 0.0
17/04:00am 18.6 12.9 15.1 80 2.0 E 39 46 21 25 1019.0 1019.0 0.0
17/03:30am 18.6 12.5 15.3 81 1.9 ENE 41 46 22 25 1018.8 1018.8 0.0
17/03:00am 18.6 13.0 15.5 82 1.8 E 39 43 21 23 1018.9 1018.9 0.0
17/02:30am 18.6 12.9 15.3 81 1.9 E 39 44 21 24 1019.1 1019.1 0.0
17/02:00am 18.6 13.5 15.8 84 1.7 E 37 43 20 23 1019.0 1019.0 0.0
17/01:30am 18.4 14.3 16.0 86 1.4 ENE 32 35 17 19 1019.2 1019.2 0.0
17/01:00am 17.3 14.7 14.9 86 1.4 NE 22 28 12 15 1019.5 1019.5 0.0
17/12:30am 18.1 14.6 15.5 85 1.5 ENE 28 35 15 19 1019.8 1019.8 0.0
17/12:00am 18.5 13.7 15.6 83 1.7 ENE 35 43 19 23 1020.1 1020.1 0.0
 
Date/Time
WST
Temp
°C
App
Temp
°C
Dew
Point
°C
Rel
Hum
%
Delta-T
°C
Wind Press
QNH
hPa
Press
MSL
hPa
Rain since
9am
mm
Dir  Spd
km/h
Gust
km/h
Spd
kts
Gust
kts
16/11:30pm 18.7 13.1 15.6 82 1.8 E 39 46 21 25 1020.4 1020.4 0.0
16/11:00pm 18.8 13.2 15.5 81 1.9 E 39 46 21 25 1020.8 1020.8 0.0
16/10:30pm 18.8 13.1 15.1 79 2.2 ENE 39 46 21 25 1021.4 1021.4 0.0
16/10:00pm 18.8 13.1 15.3 80 2.0 E 39 43 21 23 1021.6 1021.6 0.0
16/09:30pm 18.7 13.5 15.6 82 1.8 E 37 44 20 24 1021.8 1021.8 0.0
16/09:00pm 18.7 13.2 15.8 83 1.7 E 39 44 21 24 1022.0 1022.0 0.0
16/08:30pm 18.7 13.3 15.9 84 1.7 E 39 44 21 24 1022.0 1022.0 0.0
16/08:00pm 18.8 13.8 16.2 85 1.5 E 37 43 20 23 1021.6 1021.6 0.0
16/07:30pm 18.7 13.4 16.3 86 1.4 E 39 44 21 24 1021.5 1021.5 0.0
16/07:00pm 18.6 13.7 16.4 87 1.3 E 37 44 20 24 1021.4 1021.4 0.0
16/06:30pm 18.8 13.6 16.6 87 1.3 E 39 46 21 25 1021.0 1021.0 0.0
16/06:00pm 18.8 13.6 16.6 87 1.3 E 39 46 21 25 1021.0 1021.0 0.0
16/05:30pm 18.8 13.5 16.2 85 1.6 E 39 44 21 24 1020.7 1020.7 0.0
16/05:00pm 19.1 14.3 16.5 85 1.6 E 37 44 20 24 1020.4 1020.4 0.0
16/04:30pm 19.0 14.1 16.4 85 1.6 E 37 43 20 23 1020.3 1020.3 0.0
16/04:00pm 19.2 13.4 16.1 82 1.8 E 41 46 22 25 1020.1 1020.1 0.0
16/03:30pm 19.6 14.3 16.4 82 1.9 E 39 43 21 23 1020.4 1020.4 0.0
16/03:00pm 19.5 14.9 16.2 81 2.0 E 35 41 19 22 1020.4 1020.4 0.0
16/02:30pm 19.2 14.2 16.1 82 1.8 E 37 41 20 22 1020.4 1020.4 0.0
16/02:00pm 19.5 14.9 16.2 81 2.0 E 35 41 19 22 1020.5 1020.5 0.0
16/01:30pm 19.8 15.3 16.4 81 2.0 E 35 41 19 22 1020.6 1020.6 0.0
16/01:00pm 20.1 15.9 16.3 79 2.3 E 33 39 18 21 1020.8 1020.8 0.0
16/12:30pm 20.1 15.9 16.1 78 2.4 E 33 39 18 21 1021.2 1021.2 0.0
16/12:00pm 20.3 15.8 16.3 78 2.4 E 35 39 19 21 1021.2 1021.2 0.0
16/11:30am 20.4 16.3 16.4 78 2.4 E 33 37 18 20 1021.4 1021.4 0.0
16/11:00am 20.2 16.0 16.2 78 2.4 E 33 39 18 21 1021.6 1021.6 0.0
16/10:30am 20.3 16.3 16.1 77 2.5 E 32 35 17 19 1021.9 1021.9 0.0
16/10:00am 20.2 16.4 15.8 76 2.6 ESE 30 35 16 19 1022.2 1022.2 0.0
16/09:30am 20.5 16.2 15.3 72 3.1 ESE 32 35 17 19 1022.2 1022.2 0.0
16/09:00am 20.7 17.1 15.3 71 3.2 SE 28 32 15 17 1022.1 1022.1 0.0
16/08:30am 21.5 19.1 14.4 64 4.2 E 20 22 11 12 1021.6 1021.6 0.0
16/08:00am 22.1 20.8 13.7 59 4.9 ENE 13 17 7 9 1021.7 1021.7 0.0
16/07:30am 21.3 18.2 11.6 54 5.4 NE 19 22 10 12 1021.7 1021.7 0.0
16/07:00am 19.5 16.9 12.0 62 4.1 NE 17 20 9 11 1021.6 1021.6 0.0
16/06:30am 17.8 15.5 13.1 74 2.6 NE 17 24 9 13 1021.4 1021.4 0.0
16/06:00am 15.9 13.2 12.8 82 1.7 NE 19 26 10 14 1021.4 1021.4 0.0
16/05:30am 14.8 13.3 13.2 90 0.9 NE 13 19 7 10 1021.5 1021.5 0.0
16/05:00am 13.5 12.2 12.4 93 0.6 NNE 11 17 6 9 1021.1 1021.1 0.0
16/04:30am 13.3 11.5 12.2 93 0.6 NE 13 15 7 8 1020.9 1020.9 0.0
16/04:00am 13.7 11.7 12.8 94 0.5 NE 15 20 8 11 1020.5 1020.5 0.0
16/03:30am 12.8 11.3 11.9 94 0.5 NE 11 13 6 7 1020.0 1020.0 0.0
16/03:00am 13.0 11.9 11.9 93 0.6 NE 9 13 5 7 1019.7 1019.7 0.0
16/02:30am 13.7 12.8 12.6 93 0.6 NE 9 13 5 7 1019.6 1019.6 0.0
16/02:00am 14.0 12.8 12.7 92 0.7 NE 11 17 6 9 1019.6 1019.6 0.0
16/01:30am 14.2 12.6 12.9 92 0.7 NE 13 20 7 11 1019.5 1019.5 0.0
16/01:00am 14.5 12.3 13.2 92 0.7 NE 17 24 9 13 1019.2 1019.2 0.0
16/12:30am 14.6 12.8 13.3 92 0.7 NE 15 20 8 11 1019.7 1019.7 0.0
16/12:00am 14.8 13.0 13.3 91 0.8 NE 15 22 8 12 1019.9 1019.9 0.0
 
Date/Time
WST
Temp
°C
App
Temp
°C
Dew
Point
°C
Rel
Hum
%
Delta-T
°C
Wind Press
QNH
hPa
Press
MSL
hPa
Rain since
9am
mm
Dir  Spd
km/h
Gust
km/h
Spd
kts
Gust
kts
15/11:30pm 15.2 12.7 13.6 90 0.9 NE 19 24 10 13 1020.3 1020.3 0.0
15/11:00pm 15.4 12.9 13.6 89 1.0 NE 19 24 10 13 1020.9 1020.9 0.0
15/10:30pm 15.8 13.1 13.6 87 1.2 NE 20 28 11 15 1021.1 1021.1 0.0
15/10:00pm 15.9 13.5 13.7 87 1.2 NE 19 24 10 13 1021.5 1021.5 0.0
15/09:30pm 16.1 13.7 13.8 86 1.3 NE 19 22 10 12 1022.0 1022.0 0.0
15/09:00pm 16.3 14.3 13.8 85 1.4 NE 17 24 9 13 1022.0 1022.0 0.0
15/08:30pm 16.5 14.1 13.8 84 1.5 NE 19 24 10 13 1021.9 1021.9 0.0
15/08:00pm 17.4 14.8 13.9 80 2.0 NE 20 37 11 20 1021.9 1021.9 0.0
15/07:30pm 18.4 14.0 15.1 81 1.9 ENE 32 37 17 20 1021.5 1021.5 0.0
15/07:00pm 18.5 14.1 15.6 83 1.7 E 33 37 18 20 1021.2 1021.2 0.0
15/06:30pm 18.5 14.3 15.6 83 1.7 E 32 35 17 19 1021.1 1021.1 0.0
15/06:00pm 18.5 14.0 15.0 80 2.0 E 32 35 17 19 1020.9 1020.9 0.0
15/05:30pm 18.7 14.6 14.8 78 2.3 E 30 33 16 18 1020.7 1020.7 0.0
15/05:00pm 19.1 15.5 15.2 78 2.3 E 28 32 15 17 1020.4 1020.4 0.0
15/04:30pm 19.5 15.9 15.2 76 2.5 E 28 32 15 17 1020.4 1020.4 0.0
15/04:00pm 19.5 15.2 14.5 73 2.9 E 30 35 16 19 1020.3 1020.3 0.0
15/03:30pm 19.6 14.9 14.4 72 3.0 E 32 35 17 19 1020.4 1020.4 0.0
15/03:00pm 19.8 15.2 14.6 72 3.0 E 32 35 17 19 1020.5 1020.5 0.0
15/02:30pm 20.0 15.5 14.8 72 3.0 E 32 35 17 19 1020.5 1020.5 0.0
15/02:00pm 20.0 15.7 14.4 70 3.2 E 30 33 16 18 1020.7 1020.7 0.0
15/01:30pm 20.1 16.1 14.0 68 3.5 E 28 32 15 17 1021.1 1021.1 0.0
15/01:00pm 20.1 15.6 13.8 67 3.6 E 30 33 16 18 1021.5 1021.5 0.0
15/12:30pm 20.1 15.8 14.5 70 3.3 E 30 33 16 18 1021.8 1021.8 0.0
15/12:00pm 20.3 16.0 14.4 69 3.4 E 30 35 16 19 1022.2 1022.2 0.0
15/11:30am 20.1 15.9 13.6 66 3.7 E 28 32 15 17 1022.6 1022.6 0.0
15/11:00am 20.3 16.3 14.2 68 3.5 E 28 32 15 17 1023.0 1023.0 0.0
15/10:30am 20.1 16.1 14.0 68 3.5 E 28 32 15 17 1023.5 1023.5 0.0
15/10:00am 20.1 16.3 13.6 66 3.7 E 26 30 14 16 1023.8 1023.8 0.0
15/09:30am 20.3 16.5 12.5 61 4.4 ESE 24 28 13 15 1023.9 1023.9 0.0
15/09:00am 21.1 18.2 13.0 60 4.6 ESE 20 24 11 13 1024.2 1024.2 0.0
15/08:30am 20.7 17.5 9.9 50 5.8 NE 17 26 9 14 1024.2 1024.2 0.0
15/08:00am 20.1 17.5 10.8 55 5.0 NE 15 20 8 11 1024.3 1024.3 0.0
15/07:30am 19.0 15.1 10.8 59 4.4 NE 22 28 12 15 1024.5 1024.5 0.0
15/07:00am 18.4 14.9 10.8 61 4.1 NE 20 30 11 16 1024.6 1024.6 0.0
15/06:30am 17.3 13.8 10.9 66 3.4 NE 20 28 11 15 1024.5 1024.5 0.0
15/06:00am 16.1 13.0 10.4 69 3.0 NNE 17 24 9 13 1024.1 1024.1 0.0
15/05:30am 14.3 11.5 9.9 75 2.3 NNE 15 20 8 11 1023.9 1023.9 0.0
15/05:00am 12.4 9.0 9.2 81 1.6 NNE 17 22 9 12 1023.5 1023.5 0.0
15/04:30am 12.0 8.6 9.0 82 1.5 NNE 17 22 9 12 1023.4 1023.4 0.0
15/04:00am 12.2 9.2 9.2 82 1.5 NNE 15 19 8 10 1023.1 1023.1 0.0
15/03:30am 12.4 9.8 9.2 81 1.6 NNE 13 15 7 8 1023.1 1023.1 0.0
15/03:00am 12.8 10.2 9.4 80 1.7 NNE 13 17 7 9 1023.0 1023.0 0.0
15/02:30am 13.4 10.8 9.5 77 2.0 NNE 13 19 7 10 1023.0 1023.0 0.0
15/02:00am 15.2 11.5 10.0 71 2.7 ENE 20 30 11 16 1022.7 1022.7 0.0
15/01:30am 16.3 12.1 11.2 72 2.7 E 24 28 13 15 1022.8 1022.8 0.0
15/01:00am 16.3 12.5 11.0 71 2.8 E 22 30 12 16 1023.0 1023.0 0.0
15/12:30am 16.5 12.8 11.4 72 2.8 E 22 32 12 17 1023.3 1023.3 0.0
15/12:00am 16.5 12.3 11.2 71 2.8 E 24 30 13 16 1023.4 1023.4 0.0
 
Date/Time
WST
Temp
°C
App
Temp
°C
Dew
Point
°C
Rel
Hum
%
Delta-T
°C
Wind Press
QNH
hPa
Press
MSL
hPa
Rain since
9am
mm
Dir  Spd
km/h
Gust
km/h
Spd
kts
Gust
kts
14/11:30pm 16.6 12.1 11.5 72 2.8 E 26 32 14 17 1023.7 1023.7 0.0
14/11:00pm 16.8 12.4 11.7 72 2.8 E 26 33 14 18 1023.8 1023.8 0.0
14/10:30pm 16.8 12.0 11.7 72 2.8 ESE 28 33 15 18 1024.0 1024.0 0.0
14/10:00pm 17.0 12.2 11.7 71 2.9 E 28 33 15 18 1024.1 1024.1 0.0
14/09:30pm 17.1 11.8 12.4 74 2.6 ESE 32 35 17 19 1024.2 1024.2 0.0
14/09:00pm 17.4 12.2 12.9 75 2.5 ESE 32 37 17 20 1024.3 1024.3 0.0
14/08:30pm 17.2 12.6 12.3 73 2.7 ESE 28 33 15 18 1024.2 1024.2 0.0
14/08:00pm 17.3 12.7 12.2 72 2.8 ESE 28 32 15 17 1023.9 1023.9 0.0
14/07:30pm 17.4 12.9 12.5 73 2.7 ESE 28 32 15 17 1023.7 1023.7 0.0
14/07:00pm 17.3 13.4 12.2 72 2.8 ESE 24 30 13 16 1023.5 1023.5 0.0
14/06:30pm 17.3 13.1 12.4 73 2.7 SE 26 32 14 17 1023.3 1023.3 0.0
14/06:00pm 17.5 13.4 12.6 73 2.7 SE 26 30 14 16 1023.1 1023.1 0.0
14/05:30pm 17.7 13.9 12.4 71 2.9 SE 24 28 13 15 1022.8 1022.8 0.0
14/05:00pm 18.0 14.4 12.0 68 3.3 SE 22 28 12 15 1022.7 1022.7 0.0
14/04:30pm 18.2 14.8 12.4 69 3.2 SE 22 28 12 15 1022.5 1022.5 0.0
14/04:00pm 18.4 14.7 12.8 70 3.1 SE 24 28 13 15 1022.5 1022.5 0.0
14/03:30pm 18.7 15.1 12.9 69 3.3 SSE 24 30 13 16 1022.2 1022.2 0.0
14/03:00pm 19.3 15.5 13.7 70 3.2 SSE 26 32 14 17 1022.1 1022.1 0.0
14/02:30pm 19.3 15.5 13.5 69 3.3 SSE 26 32 14 17 1022.1 1022.1 0.0
14/02:00pm 20.1 16.4 14.0 68 3.5 SSE 26 30 14 16 1022.3 1022.3 0.0
14/01:30pm 20.2 17.2 13.6 66 3.8 S 22 28 12 15 1022.3 1022.3 0.0
14/01:00pm 20.5 17.5 12.7 61 4.4 SSE 20 24 11 13 1022.4 1022.4 0.0
14/12:30pm 20.6 17.8 13.1 62 4.3 S 20 26 11 14 1022.4 1022.4 0.0
14/12:00pm 20.7 18.2 14.1 66 3.8 SSE 20 24 11 13 1022.6 1022.6 0.0
14/11:30am 21.0 18.2 14.4 66 3.9 S 22 26 12 14 1022.6 1022.6 0.0
14/11:00am 20.5 18.4 12.5 60 4.5 S 15 19 8 10 1022.6 1022.6 0.0
14/10:30am 20.9 18.5 12.6 59 4.7 S 17 20 9 11 1022.8 1022.8 0.0
14/10:00am 20.3 18.5 12.0 59 4.6 S 13 19 7 10 1022.8 1022.8 0.0
14/09:30am 20.8 19.5 12.5 59 4.7 SSE 11 15 6 8 1022.7 1022.7 0.0
14/09:00am 19.7 18.3 12.2 62 4.2 S 11 15 6 8 1022.6 1022.6 0.0
14/08:30am 19.0 17.5 12.0 64 3.9 SSE 11 15 6 8 1022.6 1022.6 0.0
14/08:00am 18.5 16.2 12.9 70 3.1 SSE 17 20 9 11 1022.5 1022.5 0.0
14/07:30am 18.5 16.4 12.5 68 3.3 SSW 15 19 8 10 1022.3 1022.3 0.0
14/07:00am 18.5 16.3 13.4 72 2.9 S 17 20 9 11 1022.0 1022.0 0.0
14/06:30am 17.5 15.4 13.6 78 2.2 S 17 20 9 11 1021.8 1021.8 0.0

Other Formats:

Comma delimited format used in spreadsheet applications
http://www.bom.gov.au/fwo/IDW60801/IDW60801.94644.axf

JavaScript Object Notation format (JSON) in row-major order
http://www.bom.gov.au/fwo/IDW60801/IDW60801.94644.json